createdAt,value
2019-03-15T00:01:49.426Z,997.58
2019-03-15T00:06:46.151Z,997.53
2019-03-15T00:11:41.405Z,997.77
2019-03-15T00:16:37.251Z,997.69
2019-03-15T00:21:33.009Z,997.68
2019-03-15T00:26:28.678Z,997.75
2019-03-15T00:31:25.549Z,997.82
2019-03-15T00:36:21.105Z,997.89
2019-03-15T00:41:17.182Z,997.92
2019-03-15T00:46:13.049Z,997.87
2019-03-15T00:51:08.691Z,997.97
2019-03-15T00:56:05.529Z,997.89
2019-03-15T01:01:00.705Z,998.06
2019-03-15T01:05:56.776Z,998.03
2019-03-15T01:10:52.136Z,997.98
2019-03-15T01:15:47.623Z,997.96
2019-03-15T01:20:44.271Z,997.96
2019-03-15T01:25:39.631Z,997.99
2019-03-15T01:30:35.633Z,997.95
2019-03-15T01:35:33.587Z,997.97
2019-03-15T01:40:28.824Z,997.89
2019-03-15T01:45:25.514Z,997.96
2019-03-15T01:50:20.998Z,998.08
2019-03-15T01:55:17.652Z,998.07
2019-03-15T02:00:13.462Z,997.94
2019-03-15T02:05:08.925Z,997.93
2019-03-15T02:10:04.852Z,997.83
2019-03-15T02:15:02.443Z,997.87
2019-03-15T02:19:57.724Z,997.72
2019-03-15T02:24:53.382Z,997.76
2019-03-15T02:29:49.677Z,997.78
2019-03-15T02:34:45.569Z,997.82
2019-03-15T02:39:41.199Z,997.73
2019-03-15T02:44:38.494Z,997.85
2019-03-15T02:49:35.179Z,997.84
2019-03-15T02:54:32.201Z,997.89
2019-03-15T02:59:29.008Z,997.80
2019-03-15T03:04:24.432Z,997.85
2019-03-15T03:09:21.095Z,997.75
2019-03-15T03:14:17.932Z,997.73
2019-03-15T03:19:14.032Z,997.80
2019-03-15T03:24:09.907Z,997.71
2019-03-15T03:29:05.860Z,997.67
2019-03-15T03:34:01.282Z,997.69
2019-03-15T03:38:58.154Z,997.59
2019-03-15T03:43:53.728Z,997.64
2019-03-15T03:48:49.517Z,997.57
2019-03-15T03:53:45.329Z,997.64
2019-03-15T03:58:41.189Z,997.58
2019-03-15T04:03:36.651Z,997.58
2019-03-15T04:08:34.149Z,997.46
2019-03-15T04:13:29.608Z,997.41
2019-03-15T04:18:25.330Z,997.41
2019-03-15T04:23:21.053Z,997.38
2019-03-15T04:28:18.666Z,997.44
2019-03-15T04:33:14.021Z,997.54
2019-03-15T04:38:09.743Z,997.47
2019-03-15T04:43:06.215Z,997.51
2019-03-15T04:48:01.880Z,997.42
2019-03-15T04:52:58.008Z,997.33
2019-03-15T04:57:54.052Z,997.28
2019-03-15T05:02:50.447Z,997.14
2019-03-15T05:07:46.399Z,997.21
2019-03-15T05:12:42.313Z,997.19
2019-03-15T05:17:38.987Z,997.07
2019-03-15T05:22:34.647Z,997.07
2019-03-15T05:27:30.438Z,997.09
2019-03-15T05:32:27.112Z,997.05
2019-03-15T05:37:22.869Z,997.06
2019-03-15T05:42:18.613Z,996.99
2019-03-15T05:47:14.275Z,996.89
2019-03-15T05:52:09.690Z,996.76
2019-03-15T05:57:05.318Z,996.84
2019-03-15T06:02:02.419Z,996.77
2019-03-15T06:06:58.111Z,996.90
2019-03-15T06:11:54.921Z,996.76
2019-03-15T06:16:50.553Z,996.72
2019-03-15T06:21:46.070Z,996.59
2019-03-15T06:26:41.841Z,996.49
2019-03-15T06:31:37.565Z,996.51
2019-03-15T06:36:33.434Z,996.49
2019-03-15T06:41:29.234Z,996.39
2019-03-15T06:46:24.863Z,996.23
2019-03-15T06:51:21.802Z,996.24
2019-03-15T06:56:17.246Z,996.28
2019-03-15T07:01:13.762Z,996.21
2019-03-15T07:06:09.679Z,996.18
2019-03-15T07:11:06.285Z,996.07
2019-03-15T07:16:02.731Z,995.98
2019-03-15T07:20:58.252Z,995.94
2019-03-15T07:25:53.999Z,995.91
2019-03-15T07:30:50.736Z,995.96
2019-03-15T07:35:46.634Z,996.00
2019-03-15T07:40:42.380Z,995.83
2019-03-15T07:45:38.111Z,995.84
2019-03-15T07:50:33.693Z,995.64
2019-03-15T07:55:29.780Z,995.73
2019-03-15T08:00:25.514Z,995.71
2019-03-15T08:05:21.048Z,995.58
2019-03-15T08:10:17.129Z,995.67
2019-03-15T08:15:12.870Z,995.62
2019-03-15T08:20:09.493Z,995.56
2019-03-15T08:25:05.032Z,995.38
2019-03-15T08:30:00.720Z,995.21
2019-03-15T08:34:56.150Z,995.11
2019-03-15T08:39:53.035Z,995.10
2019-03-15T08:44:49.658Z,995.15
2019-03-15T08:49:44.903Z,995.19
2019-03-15T08:54:41.628Z,995.25
2019-03-15T08:59:37.011Z,995.06
2019-03-15T09:04:33.343Z,995.00
2019-03-15T09:09:30.401Z,994.96
2019-03-15T09:14:25.937Z,994.86
2019-03-15T09:19:21.790Z,994.97
2019-03-15T09:24:17.566Z,994.85
2019-03-15T09:29:13.482Z,994.75
2019-03-15T09:34:09.214Z,994.68
2019-03-15T09:39:06.299Z,994.48
2019-03-15T09:44:03.131Z,994.28
2019-03-15T09:48:59.863Z,994.58
2019-03-15T09:53:55.604Z,994.28
2019-03-15T09:58:51.469Z,994.39
2019-03-15T10:03:47.889Z,994.30
2019-03-15T10:08:43.521Z,994.38
2019-03-15T10:13:40.408Z,994.18
2019-03-15T10:18:35.943Z,994.32
2019-03-15T10:23:31.446Z,994.26
2019-03-15T10:28:27.607Z,994.11
2019-03-15T10:33:23.462Z,994.07
2019-03-15T10:38:20.169Z,994.03
2019-03-15T10:43:15.615Z,994.12
2019-03-15T10:48:24.171Z,994.20
2019-03-15T10:53:10.758Z,994.08
2019-03-15T10:58:07.326Z,993.93
2019-03-15T11:03:02.885Z,994.08
2019-03-15T11:07:59.281Z,994.10
2019-03-15T11:12:55.189Z,994.16
2019-03-15T11:17:50.986Z,994.19
2019-03-15T11:22:47.728Z,994.20
2019-03-15T11:27:43.896Z,994.08
2019-03-15T11:32:39.755Z,994.29
2019-03-15T11:37:35.425Z,994.22
2019-03-15T11:42:31.000Z,994.45
2019-03-15T11:47:27.994Z,994.26
2019-03-15T11:52:24.473Z,994.05
2019-03-15T11:57:21.077Z,993.96
2019-03-15T12:02:18.738Z,994.05
2019-03-15T12:07:14.888Z,994.08
2019-03-15T12:12:10.826Z,994.00
2019-03-15T12:17:06.999Z,993.96
2019-03-15T12:22:06.582Z,993.93
2019-03-15T12:27:01.215Z,993.79
2019-03-15T12:31:56.660Z,993.92
2019-03-15T12:36:52.166Z,994.11
2019-03-15T12:41:48.408Z,994.20
2019-03-15T12:46:44.945Z,994.08
2019-03-15T12:51:40.466Z,993.98
2019-03-15T12:56:35.803Z,994.04
2019-03-15T13:01:32.052Z,993.94
2019-03-15T13:06:29.032Z,993.80
2019-03-15T13:11:25.724Z,993.77
2019-03-15T13:16:21.428Z,993.59
2019-03-15T13:21:16.988Z,993.70
2019-03-15T13:26:12.762Z,993.73
2019-03-15T13:31:09.747Z,993.59
2019-03-15T13:36:06.447Z,993.69
2019-03-15T13:41:02.320Z,993.65
2019-03-15T13:45:58.094Z,993.40
2019-03-15T13:50:54.385Z,993.48
2019-03-15T13:55:51.086Z,993.42
2019-03-15T14:00:47.270Z,993.50
2019-03-15T14:05:43.418Z,993.51
2019-03-15T14:10:48.759Z,993.61
2019-03-15T14:15:38.323Z,993.61
2019-03-15T14:20:33.947Z,993.73
2019-03-15T14:25:29.514Z,993.80
2019-03-15T14:30:25.383Z,994.49
2019-03-15T14:35:20.889Z,994.64
2019-03-15T14:40:16.363Z,994.47
2019-03-15T14:45:12.707Z,994.83
2019-03-15T14:50:07.473Z,994.62
2019-03-15T14:55:02.948Z,994.63
2019-03-15T14:59:59.462Z,995.01
2019-03-15T15:04:54.932Z,995.11
2019-03-15T15:09:51.610Z,995.07
2019-03-15T15:14:47.213Z,994.97
2019-03-15T15:19:43.039Z,994.94
2019-03-15T15:24:38.556Z,995.04
2019-03-15T15:29:34.233Z,994.73
2019-03-15T15:34:29.891Z,994.76
2019-03-15T15:39:25.684Z,995.09
2019-03-15T15:44:22.231Z,995.15
2019-03-15T15:49:17.997Z,995.26
2019-03-15T15:54:14.713Z,994.96
2019-03-15T15:59:10.387Z,995.01
2019-03-15T16:04:06.057Z,994.84
2019-03-15T16:09:02.779Z,994.86
2019-03-15T16:13:58.510Z,994.79
2019-03-15T16:18:54.396Z,994.90
2019-03-15T16:23:50.145Z,994.84
2019-03-15T16:28:46.889Z,994.81
2019-03-15T16:33:42.860Z,994.84
2019-03-15T16:38:38.704Z,994.91
2019-03-15T16:43:35.813Z,995.37
2019-03-15T16:48:31.089Z,995.30
2019-03-15T16:53:27.313Z,995.34
2019-03-15T16:58:23.008Z,995.36
2019-03-15T17:03:19.782Z,995.59
2019-03-15T17:08:15.189Z,995.68
2019-03-15T17:13:11.331Z,995.63
2019-03-15T17:18:06.976Z,995.66
2019-03-15T17:23:02.899Z,995.93
2019-03-15T17:27:59.335Z,996.04
2019-03-15T17:32:54.749Z,996.15
2019-03-15T17:37:50.516Z,996.40
2019-03-15T17:42:46.477Z,996.62
2019-03-15T17:47:42.047Z,996.55
2019-03-15T17:52:37.515Z,996.55
2019-03-15T18:02:34.006Z,996.82
2019-03-15T18:07:29.439Z,996.95
2019-03-15T18:12:26.275Z,997.02
2019-03-15T18:17:23.383Z,997.08
2019-03-15T18:22:18.757Z,997.10
2019-03-15T18:27:14.523Z,997.24
2019-03-15T18:32:10.011Z,997.36
2019-03-15T18:37:06.032Z,997.29
2019-03-15T18:42:01.697Z,997.36
2019-03-15T18:46:58.385Z,997.42
2019-03-15T18:51:53.796Z,997.56
2019-03-15T18:56:49.285Z,997.69
2019-03-15T19:01:45.164Z,997.91
2019-03-15T19:06:42.491Z,997.79
2019-03-15T19:11:38.259Z,998.01
2019-03-15T19:16:34.931Z,998.09
2019-03-15T19:21:30.432Z,998.08
2019-03-15T19:26:28.836Z,998.10
2019-03-15T19:31:24.489Z,998.18
2019-03-15T19:36:21.167Z,998.51
2019-03-15T19:41:16.687Z,998.43
2019-03-15T19:46:13.260Z,998.56
2019-03-15T19:51:08.822Z,998.63
2019-03-15T19:56:04.654Z,998.69
2019-03-15T20:01:00.372Z,998.85
2019-03-15T20:05:55.819Z,998.81
2019-03-15T20:10:52.559Z,998.91
2019-03-15T20:15:50.842Z,998.99
2019-03-15T20:20:46.996Z,999.14
2019-03-15T20:25:42.407Z,999.13
2019-03-15T20:30:51.029Z,999.18
2019-03-15T20:35:37.130Z,999.33
2019-03-15T20:40:32.878Z,999.37
2019-03-15T20:45:28.598Z,999.29
2019-03-15T20:50:24.295Z,999.51
2019-03-15T20:55:20.049Z,999.67
2019-03-15T21:00:15.876Z,999.61
2019-03-15T21:05:11.735Z,999.63
2019-03-15T21:10:07.340Z,999.69
2019-03-15T21:15:05.857Z,999.65
2019-03-15T21:20:00.868Z,999.68
2019-03-15T21:24:57.658Z,999.64
2019-03-15T21:29:53.141Z,999.60
2019-03-15T21:34:48.665Z,999.81
2019-03-15T21:39:44.462Z,999.79
2019-03-15T21:44:40.090Z,999.77
2019-03-15T21:49:37.461Z,999.91
2019-03-15T21:54:32.915Z,999.99
2019-03-15T21:59:28.720Z,1000.08
2019-03-15T22:04:24.890Z,1000.11
2019-03-15T22:09:19.758Z,1000.01
2019-03-15T22:14:15.501Z,1000.04
2019-03-15T22:19:11.290Z,1000.14
2019-03-15T22:24:06.814Z,1000.23
2019-03-15T22:29:02.436Z,1000.18
2019-03-15T22:33:58.140Z,1000.24
2019-03-15T22:38:53.850Z,1000.28
2019-03-15T22:43:49.494Z,1000.42
2019-03-15T22:48:45.203Z,1000.45
2019-03-15T22:53:40.558Z,1000.67
2019-03-15T22:58:37.545Z,1000.68
2019-03-15T23:03:33.120Z,1000.76
2019-03-15T23:08:28.713Z,1000.94
2019-03-15T23:13:24.667Z,1000.98
2019-03-15T23:18:20.437Z,1000.97
2019-03-15T23:23:23.940Z,1000.96
2019-03-15T23:28:15.292Z,1001.09
2019-03-15T23:33:12.672Z,1001.11
2019-03-15T23:38:08.206Z,1001.14
2019-03-15T23:43:05.210Z,1001.16
2019-03-15T23:48:00.522Z,1001.14
2019-03-15T23:52:56.191Z,1001.22
2019-03-15T23:57:52.863Z,1001.19
